createdAt,value
2018-05-15T00:00:46.106Z,15.38
2018-05-15T00:01:46.085Z,15.38
2018-05-15T00:02:46.023Z,15.31
2018-05-15T00:03:46.093Z,15.38
2018-05-15T00:04:46.065Z,15.31
2018-05-15T00:05:46.420Z,15.38
2018-05-15T00:06:46.002Z,15.31
2018-05-15T00:07:46.049Z,15.38
2018-05-15T00:08:46.093Z,15.31
2018-05-15T00:09:46.094Z,15.38
2018-05-15T00:10:46.065Z,15.44
2018-05-15T00:11:46.093Z,15.38
2018-05-15T00:12:46.078Z,15.38
2018-05-15T00:13:46.057Z,15.44
2018-05-15T00:14:46.029Z,15.44
2018-05-15T00:15:46.042Z,15.44
2018-05-15T00:16:46.036Z,15.44
2018-05-15T00:17:46.049Z,15.44
2018-05-15T00:18:46.061Z,15.44
2018-05-15T00:19:46.039Z,15.38
2018-05-15T00:20:46.013Z,15.38
2018-05-15T00:21:46.248Z,15.38
2018-05-15T00:22:46.117Z,15.38
2018-05-15T00:23:46.099Z,15.38
2018-05-15T00:24:46.139Z,15.38
2018-05-15T00:25:46.044Z,15.38
2018-05-15T00:26:46.083Z,15.38
2018-05-15T00:27:46.081Z,15.38
2018-05-15T00:28:46.073Z,15.44
2018-05-15T00:29:46.078Z,15.44
2018-05-15T00:30:46.048Z,15.44
2018-05-15T00:31:46.056Z,15.44
2018-05-15T00:32:46.126Z,15.5
2018-05-15T00:33:46.091Z,15.44
2018-05-15T00:34:46.132Z,15.44
2018-05-15T00:35:46.116Z,15.5
2018-05-15T00:36:46.084Z,15.5
2018-05-15T00:37:46.034Z,15.5
2018-05-15T00:38:46.188Z,15.5
2018-05-15T00:39:46.120Z,15.5
2018-05-15T00:40:46.081Z,15.5
2018-05-15T00:41:46.119Z,15.44
2018-05-15T00:42:46.087Z,15.44
2018-05-15T00:43:46.066Z,15.44
2018-05-15T00:44:46.181Z,15.44
2018-05-15T00:45:46.095Z,15.5
2018-05-15T00:46:46.452Z,15.44
2018-05-15T00:47:46.126Z,15.5
2018-05-15T00:48:46.066Z,15.5
2018-05-15T00:49:46.099Z,15.5
2018-05-15T00:50:46.060Z,15.5
2018-05-15T00:51:46.090Z,15.44
2018-05-15T00:52:46.086Z,15.5
2018-05-15T00:53:46.083Z,15.5
2018-05-15T00:54:46.098Z,15.5
2018-05-15T00:55:46.073Z,15.5
2018-05-15T00:56:46.282Z,15.5
2018-05-15T00:57:46.172Z,15.44
2018-05-15T00:58:46.133Z,15.44
2018-05-15T00:59:46.213Z,15.44
2018-05-15T01:00:46.088Z,15.5
2018-05-15T01:01:46.244Z,15.5
2018-05-15T01:02:46.094Z,15.44
2018-05-15T01:03:46.149Z,15.5
2018-05-15T01:04:46.078Z,15.44
2018-05-15T01:05:46.070Z,15.5
2018-05-15T01:06:46.130Z,15.44
2018-05-15T01:07:46.107Z,15.38
2018-05-15T01:08:46.080Z,15.38
2018-05-15T01:09:46.796Z,15.38
2018-05-15T01:10:46.069Z,15.38
2018-05-15T01:11:46.056Z,15.38
2018-05-15T01:12:46.064Z,15.38
2018-05-15T01:13:46.097Z,15.38
2018-05-15T01:14:46.078Z,15.38
2018-05-15T01:15:46.107Z,15.44
2018-05-15T01:16:46.099Z,15.38
2018-05-15T01:17:46.182Z,15.38
2018-05-15T01:18:46.050Z,15.38
2018-05-15T01:19:46.081Z,15.38
2018-05-15T01:20:46.080Z,15.38
2018-05-15T01:21:46.024Z,15.38
2018-05-15T01:22:46.067Z,15.44
2018-05-15T01:23:46.020Z,15.44
2018-05-15T01:24:46.073Z,15.38
2018-05-15T01:25:46.141Z,15.44
2018-05-15T01:26:46.059Z,15.44
2018-05-15T01:27:46.091Z,15.44
2018-05-15T01:28:46.200Z,15.44
2018-05-15T01:29:46.133Z,15.44
2018-05-15T01:30:46.255Z,15.5
2018-05-15T01:31:46.099Z,15.44
2018-05-15T01:32:46.053Z,15.44
2018-05-15T01:33:46.132Z,15.5
2018-05-15T01:34:46.238Z,15.44
2018-05-15T01:35:46.133Z,15.5
2018-05-15T01:36:46.064Z,15.5
2018-05-15T01:37:46.122Z,15.5
2018-05-15T01:38:46.102Z,15.5
2018-05-15T01:39:46.076Z,15.5
2018-05-15T01:40:46.102Z,15.5
2018-05-15T01:41:46.201Z,15.5
2018-05-15T01:42:46.058Z,15.5
2018-05-15T01:43:46.099Z,15.5
2018-05-15T01:44:46.137Z,15.5
2018-05-15T01:45:46.111Z,15.5
2018-05-15T01:46:46.153Z,15.5
2018-05-15T01:47:46.070Z,15.5
2018-05-15T01:48:46.117Z,15.5
2018-05-15T01:49:46.074Z,15.5
2018-05-15T01:50:46.106Z,15.5
2018-05-15T01:51:46.152Z,15.5
2018-05-15T01:52:46.231Z,15.5
2018-05-15T01:53:46.137Z,15.56
2018-05-15T01:54:46.163Z,15.5
2018-05-15T01:55:46.104Z,15.56
2018-05-15T01:56:46.059Z,15.5
2018-05-15T01:57:46.074Z,15.56
2018-05-15T01:58:46.101Z,15.56
2018-05-15T01:59:46.135Z,15.56
2018-05-15T02:00:46.094Z,15.56
2018-05-15T02:01:46.129Z,15.56
2018-05-15T02:02:46.236Z,15.56
2018-05-15T02:03:46.212Z,15.56
2018-05-15T02:04:46.106Z,15.56
2018-05-15T02:05:46.078Z,15.56
2018-05-15T02:06:46.127Z,15.56
2018-05-15T02:07:46.091Z,15.56
2018-05-15T02:08:46.151Z,15.5
2018-05-15T02:09:46.122Z,15.56
2018-05-15T02:10:46.079Z,15.56
2018-05-15T02:11:46.125Z,15.56
2018-05-15T02:12:46.102Z,15.56
2018-05-15T02:13:46.120Z,15.56
2018-05-15T02:14:46.091Z,15.5
2018-05-15T02:15:46.118Z,15.56
2018-05-15T02:16:46.137Z,15.56
2018-05-15T02:17:46.097Z,15.56
2018-05-15T02:18:46.116Z,15.56
2018-05-15T02:19:46.113Z,15.56
2018-05-15T02:20:46.267Z,15.56
2018-05-15T02:21:46.083Z,15.56
2018-05-15T02:22:46.064Z,15.5
2018-05-15T02:23:46.123Z,15.56
2018-05-15T02:24:46.105Z,15.5
2018-05-15T02:25:46.099Z,15.56
2018-05-15T02:26:46.106Z,15.56
2018-05-15T02:27:46.087Z,15.56
2018-05-15T02:28:46.076Z,15.5
2018-05-15T02:29:46.143Z,15.5
2018-05-15T02:30:46.135Z,15.56
2018-05-15T02:31:46.125Z,15.5
2018-05-15T02:32:46.139Z,15.5
2018-05-15T02:33:46.139Z,15.56
2018-05-15T02:34:46.112Z,15.5
2018-05-15T02:35:46.133Z,15.56
2018-05-15T02:36:46.223Z,15.56
2018-05-15T02:37:46.076Z,15.56
2018-05-15T02:38:46.183Z,15.5
2018-05-15T02:39:46.106Z,15.5
2018-05-15T02:40:46.162Z,15.5
2018-05-15T02:41:46.288Z,15.5
2018-05-15T02:42:46.241Z,15.5
2018-05-15T02:43:46.161Z,15.5
2018-05-15T02:44:46.159Z,15.5
2018-05-15T02:45:46.121Z,15.5
2018-05-15T02:46:46.180Z,15.5
2018-05-15T02:47:46.123Z,15.5
2018-05-15T02:48:46.169Z,15.44
2018-05-15T02:49:46.137Z,15.38
2018-05-15T02:50:46.181Z,15.38
2018-05-15T02:51:46.119Z,15.38
2018-05-15T02:52:46.094Z,15.31
2018-05-15T02:53:46.854Z,15.31
2018-05-15T02:54:46.902Z,15.31
2018-05-15T02:55:46.887Z,15.31
2018-05-15T02:56:46.872Z,15.31
2018-05-15T02:57:46.154Z,15.31
2018-05-15T02:58:46.957Z,15.38
2018-05-15T02:59:46.127Z,15.31
2018-05-15T03:00:46.141Z,15.31
2018-05-15T03:01:46.166Z,15.31
2018-05-15T03:02:46.118Z,15.31
2018-05-15T03:03:46.137Z,15.38
2018-05-15T03:04:46.159Z,15.31
2018-05-15T03:05:46.125Z,15.31
2018-05-15T03:06:46.130Z,15.31
2018-05-15T03:07:46.151Z,15.31
2018-05-15T03:08:46.127Z,15.31
2018-05-15T03:09:46.864Z,15.25
2018-05-15T03:10:46.141Z,15.25
2018-05-15T03:11:47.388Z,15.25
2018-05-15T03:12:46.135Z,15.19
2018-05-15T03:13:46.899Z,15.25
2018-05-15T03:14:46.150Z,15.25
2018-05-15T03:15:46.850Z,15.25
2018-05-15T03:16:46.123Z,15.19
2018-05-15T03:17:46.085Z,15.25
2018-05-15T03:18:46.131Z,15.25
2018-05-15T03:19:46.107Z,15.25
2018-05-15T03:20:46.199Z,15.25
2018-05-15T03:21:46.158Z,15.25
2018-05-15T03:22:46.153Z,15.25
2018-05-15T03:23:46.150Z,15.25
2018-05-15T03:24:46.150Z,15.19
2018-05-15T03:25:46.178Z,15.25
2018-05-15T03:26:46.084Z,15.19
2018-05-15T03:27:46.114Z,15.19
2018-05-15T03:28:46.152Z,15.19
2018-05-15T03:29:46.136Z,15.13
2018-05-15T03:30:46.143Z,15.13
2018-05-15T03:31:46.149Z,15.13
2018-05-15T03:32:46.124Z,15.06
2018-05-15T03:33:46.120Z,15.13
2018-05-15T03:34:46.155Z,15.06
2018-05-15T03:35:46.106Z,15.06
2018-05-15T03:36:46.153Z,15
2018-05-15T03:37:46.954Z,15
2018-05-15T03:38:46.144Z,15
2018-05-15T03:39:46.135Z,15
2018-05-15T03:40:46.148Z,15
2018-05-15T03:41:47.417Z,14.94
2018-05-15T03:42:46.120Z,14.94
2018-05-15T03:43:46.144Z,14.94
2018-05-15T03:44:46.171Z,14.94
2018-05-15T03:45:46.908Z,14.94
2018-05-15T03:46:46.910Z,14.94
2018-05-15T03:47:46.923Z,14.94
2018-05-15T03:48:46.154Z,14.94
2018-05-15T03:49:46.191Z,14.94
2018-05-15T03:50:46.135Z,14.94
2018-05-15T03:51:46.163Z,14.94
2018-05-15T03:52:46.193Z,14.87
2018-05-15T03:53:46.188Z,14.94
2018-05-15T03:54:46.158Z,14.94
2018-05-15T03:55:46.188Z,14.94
2018-05-15T03:56:46.148Z,14.87
2018-05-15T03:57:46.145Z,14.94
2018-05-15T03:58:46.161Z,14.87
2018-05-15T03:59:46.181Z,14.81
2018-05-15T04:00:46.180Z,14.81
2018-05-15T04:01:46.190Z,14.81
2018-05-15T04:02:46.288Z,14.75
2018-05-15T04:03:46.165Z,14.81
2018-05-15T04:04:46.154Z,14.75
2018-05-15T04:05:46.145Z,14.69
2018-05-15T04:06:46.227Z,14.69
2018-05-15T04:07:46.162Z,14.69
2018-05-15T04:08:47.388Z,14.69
2018-05-15T04:09:46.174Z,14.69
2018-05-15T04:10:46.598Z,14.69
2018-05-15T04:11:46.212Z,14.69
2018-05-15T04:12:46.187Z,14.69
2018-05-15T04:13:46.173Z,14.69
2018-05-15T04:14:46.245Z,14.63
2018-05-15T04:15:46.310Z,14.69
2018-05-15T04:16:46.229Z,14.69
2018-05-15T04:17:46.191Z,14.69
2018-05-15T04:18:46.196Z,14.69
2018-05-15T04:19:46.223Z,14.69
2018-05-15T04:20:46.156Z,14.69
2018-05-15T04:21:46.297Z,14.69
2018-05-15T04:22:46.150Z,14.69
2018-05-15T04:23:46.369Z,14.63
2018-05-15T04:24:46.153Z,14.69
2018-05-15T04:25:46.201Z,14.69
2018-05-15T04:26:46.179Z,14.69
2018-05-15T04:27:46.170Z,14.69
2018-05-15T04:28:46.173Z,14.69
2018-05-15T04:29:46.159Z,14.69
2018-05-15T04:30:46.173Z,14.69
2018-05-15T04:31:46.190Z,14.69
2018-05-15T04:32:46.291Z,14.69
2018-05-15T04:33:46.204Z,14.69
2018-05-15T04:34:46.168Z,14.69
2018-05-15T04:35:46.220Z,14.69
2018-05-15T04:36:46.135Z,14.69
2018-05-15T04:37:46.170Z,14.75
2018-05-15T04:38:46.552Z,14.75
2018-05-15T04:39:46.125Z,14.75
2018-05-15T04:40:46.202Z,14.69
2018-05-15T04:41:46.166Z,14.69
2018-05-15T04:42:46.219Z,14.69
2018-05-15T04:43:48.478Z,14.69
2018-05-15T04:44:46.183Z,14.75
2018-05-15T04:45:46.175Z,14.75
2018-05-15T04:46:46.139Z,14.69
2018-05-15T04:47:46.198Z,14.75
2018-05-15T04:48:46.162Z,14.75
2018-05-15T04:49:46.194Z,14.81
2018-05-15T04:50:46.188Z,14.81
2018-05-15T04:51:46.171Z,14.75
2018-05-15T04:52:46.209Z,14.81
2018-05-15T04:53:46.734Z,14.81
2018-05-15T04:54:46.160Z,14.81
2018-05-15T04:55:47.026Z,14.87
2018-05-15T04:56:46.157Z,14.81
2018-05-15T04:57:46.223Z,14.81
2018-05-15T04:58:46.161Z,14.81
2018-05-15T04:59:46.179Z,14.87
2018-05-15T05:00:46.158Z,14.87
2018-05-15T05:01:46.130Z,14.81
2018-05-15T05:02:48.341Z,14.81
2018-05-15T05:03:46.145Z,14.87
2018-05-15T05:04:46.183Z,14.81
2018-05-15T05:05:46.158Z,14.87
2018-05-15T05:06:46.165Z,14.81
2018-05-15T05:07:46.263Z,14.87
2018-05-15T05:08:46.200Z,14.87
2018-05-15T05:09:46.224Z,14.87
2018-05-15T05:10:46.528Z,14.87
2018-05-15T05:11:47.059Z,14.87
2018-05-15T05:12:46.374Z,14.87
2018-05-15T05:13:46.194Z,14.87
2018-05-15T05:14:46.556Z,14.94
2018-05-15T05:15:46.159Z,14.87
2018-05-15T05:16:46.209Z,14.87
2018-05-15T05:17:46.235Z,14.94
2018-05-15T05:18:46.150Z,14.94
2018-05-15T05:19:46.217Z,14.94
2018-05-15T05:20:46.205Z,14.87
2018-05-15T05:21:46.170Z,14.87
2018-05-15T05:22:46.505Z,14.87
2018-05-15T05:23:46.615Z,14.87
2018-05-15T05:24:46.234Z,14.87
2018-05-15T05:25:46.219Z,14.87
2018-05-15T05:26:46.250Z,14.81
2018-05-15T05:27:46.269Z,14.81
2018-05-15T05:28:46.208Z,14.81
2018-05-15T05:29:46.228Z,14.81
2018-05-15T05:30:46.265Z,14.75
2018-05-15T05:31:46.472Z,14.81
2018-05-15T05:32:46.225Z,14.81
2018-05-15T05:33:46.224Z,14.81
2018-05-15T05:34:46.323Z,14.87
2018-05-15T05:35:46.224Z,14.87
2018-05-15T05:36:46.226Z,14.87
2018-05-15T05:37:46.175Z,14.87
2018-05-15T05:38:46.251Z,14.87
2018-05-15T05:39:46.183Z,14.87
2018-05-15T05:40:46.228Z,14.87
2018-05-15T05:41:46.195Z,14.81
2018-05-15T05:42:46.184Z,14.81
2018-05-15T05:43:46.187Z,14.81
2018-05-15T05:44:46.204Z,14.87
2018-05-15T05:45:46.200Z,14.81
2018-05-15T05:46:46.205Z,14.87
2018-05-15T05:47:46.208Z,14.81
2018-05-15T05:48:46.203Z,14.81
2018-05-15T05:49:46.184Z,14.81
2018-05-15T05:50:46.193Z,14.75
2018-05-15T05:51:46.224Z,14.81
2018-05-15T05:52:46.227Z,14.75
2018-05-15T05:53:46.223Z,14.75
2018-05-15T05:54:46.256Z,14.75
2018-05-15T05:55:46.223Z,14.69
2018-05-15T05:56:46.229Z,14.69
2018-05-15T05:57:46.201Z,14.69
2018-05-15T05:58:46.249Z,14.69
2018-05-15T05:59:46.352Z,14.75
2018-05-15T06:00:46.216Z,14.69
2018-05-15T06:01:46.263Z,14.75
2018-05-15T06:02:46.229Z,14.75
2018-05-15T06:03:46.216Z,14.81
2018-05-15T06:04:46.301Z,14.81
2018-05-15T06:05:46.245Z,14.87
2018-05-15T06:06:46.231Z,14.87
2018-05-15T06:07:46.194Z,14.87
2018-05-15T06:08:46.200Z,14.94
2018-05-15T06:09:46.261Z,14.94
2018-05-15T06:10:46.310Z,14.87
2018-05-15T06:11:46.221Z,14.94
2018-05-15T06:12:46.174Z,14.87
2018-05-15T06:13:46.184Z,14.94
2018-05-15T06:14:46.265Z,14.87
2018-05-15T06:15:46.186Z,14.87
2018-05-15T06:16:46.327Z,14.81
2018-05-15T06:17:46.206Z,14.81
2018-05-15T06:18:46.345Z,14.87
2018-05-15T06:19:46.263Z,14.87
2018-05-15T06:20:47.218Z,14.87
2018-05-15T06:21:46.300Z,14.87
2018-05-15T06:22:46.194Z,14.87
2018-05-15T06:23:46.202Z,14.87
2018-05-15T06:24:46.267Z,14.87
2018-05-15T06:25:46.228Z,14.87
2018-05-15T06:26:47.223Z,14.81
2018-05-15T06:27:46.399Z,14.75
2018-05-15T06:28:46.202Z,14.75
2018-05-15T06:29:46.189Z,14.69
2018-05-15T06:30:46.245Z,14.69
2018-05-15T06:31:46.246Z,14.69
2018-05-15T06:32:46.297Z,14.69
2018-05-15T06:33:46.279Z,14.75
2018-05-15T06:34:46.340Z,14.69
2018-05-15T06:35:46.285Z,14.75
2018-05-15T06:36:46.330Z,14.75
2018-05-15T06:37:46.318Z,14.75
2018-05-15T06:38:46.261Z,14.75
2018-05-15T06:39:46.313Z,14.75
2018-05-15T06:40:46.337Z,14.75
2018-05-15T06:41:46.270Z,14.69
2018-05-15T06:42:46.292Z,14.69
2018-05-15T06:43:46.345Z,14.69
2018-05-15T06:44:47.263Z,14.69
2018-05-15T06:45:46.288Z,14.69
2018-05-15T06:46:46.279Z,14.69
2018-05-15T06:47:49.188Z,14.69
2018-05-15T06:48:46.497Z,14.69
2018-05-15T06:49:46.304Z,14.69
2018-05-15T06:50:46.319Z,14.69
2018-05-15T06:51:46.371Z,14.69
2018-05-15T06:52:46.361Z,14.75
2018-05-15T06:53:46.394Z,14.75
2018-05-15T06:54:46.370Z,14.75
2018-05-15T06:55:46.378Z,14.75
2018-05-15T06:56:46.405Z,14.75
2018-05-15T06:57:46.378Z,14.75
2018-05-15T06:58:46.363Z,14.75
2018-05-15T06:59:46.439Z,14.75
2018-05-15T07:00:46.505Z,14.81
2018-05-15T07:01:47.104Z,14.81
2018-05-15T07:02:46.474Z,14.81
2018-05-15T07:03:46.364Z,14.87
2018-05-15T07:04:46.503Z,14.81
2018-05-15T07:05:46.407Z,14.81
2018-05-15T07:06:46.372Z,14.81
2018-05-15T07:07:47.421Z,14.87
2018-05-15T07:08:46.392Z,14.87
2018-05-15T07:09:46.435Z,14.81
2018-05-15T07:10:46.421Z,14.87
2018-05-15T07:11:46.417Z,14.81
2018-05-15T07:12:46.417Z,14.81
2018-05-15T07:13:46.457Z,14.81
2018-05-15T07:14:46.441Z,14.81
2018-05-15T07:15:46.727Z,14.81
2018-05-15T07:16:46.461Z,14.81
2018-05-15T07:17:46.716Z,14.81
2018-05-15T07:18:46.390Z,14.87
2018-05-15T07:19:46.853Z,14.87
2018-05-15T07:20:46.416Z,14.94
2018-05-15T07:21:46.411Z,14.94
2018-05-15T07:22:46.434Z,15
2018-05-15T07:23:46.400Z,15.06
2018-05-15T07:24:46.376Z,15.06
2018-05-15T07:25:46.442Z,15.06
2018-05-15T07:26:46.486Z,15
2018-05-15T07:27:46.435Z,15.06
2018-05-15T07:28:46.378Z,15.13
2018-05-15T07:29:46.376Z,15.13
2018-05-15T07:30:46.391Z,15.19
2018-05-15T07:31:46.378Z,15.19
2018-05-15T07:32:46.355Z,15.25
2018-05-15T07:33:46.384Z,15.31
2018-05-15T07:34:46.403Z,15.31
2018-05-15T07:35:46.454Z,15.38
2018-05-15T07:36:46.388Z,15.38
2018-05-15T07:37:46.448Z,15.38
2018-05-15T07:38:46.374Z,15.44
2018-05-15T07:39:46.440Z,15.38
2018-05-15T07:40:46.342Z,15.38
2018-05-15T07:41:46.416Z,15.44
2018-05-15T07:42:46.390Z,15.44
2018-05-15T07:43:46.370Z,15.5
2018-05-15T07:44:46.367Z,15.5
2018-05-15T07:45:46.419Z,15.5
2018-05-15T07:46:46.455Z,15.5
2018-05-15T07:47:46.369Z,15.56
2018-05-15T07:48:46.571Z,15.56
2018-05-15T07:49:46.444Z,15.63
2018-05-15T07:50:46.233Z,15.63
2018-05-15T07:51:46.393Z,15.69
2018-05-15T07:52:46.459Z,15.75
2018-05-15T07:53:47.514Z,15.75
2018-05-15T07:54:46.227Z,15.75
2018-05-15T07:55:46.249Z,15.81
2018-05-15T07:56:46.502Z,15.81
2018-05-15T07:57:46.244Z,15.81
2018-05-15T07:58:46.263Z,15.88
2018-05-15T07:59:46.280Z,15.88
2018-05-15T08:00:46.251Z,15.88
2018-05-15T08:01:46.469Z,15.81
2018-05-15T08:02:46.291Z,15.88
2018-05-15T08:03:46.245Z,15.88
2018-05-15T08:04:46.316Z,15.94
2018-05-15T08:05:46.283Z,15.94
2018-05-15T08:06:46.587Z,15.94
2018-05-15T08:07:46.689Z,16
2018-05-15T08:08:46.306Z,16.06
2018-05-15T08:09:46.300Z,16.06
2018-05-15T08:10:46.275Z,16.12
2018-05-15T08:11:46.568Z,16.12
2018-05-15T08:12:46.292Z,16.12
2018-05-15T08:13:46.356Z,16.19
2018-05-15T08:14:46.258Z,16.19
2018-05-15T08:15:46.310Z,16.19
2018-05-15T08:16:46.242Z,16.19
2018-05-15T08:17:46.257Z,16.19
2018-05-15T08:18:46.259Z,16.25
2018-05-15T08:19:46.287Z,16.25
2018-05-15T08:20:46.315Z,16.25
2018-05-15T08:21:46.357Z,16.31
2018-05-15T08:22:46.246Z,16.31
2018-05-15T08:23:46.263Z,16.37
2018-05-15T08:24:46.230Z,16.37
2018-05-15T08:25:46.254Z,16.44
2018-05-15T08:26:47.234Z,16.44
2018-05-15T08:27:46.307Z,16.44
2018-05-15T08:28:46.447Z,16.44
2018-05-15T08:29:46.254Z,16.5
2018-05-15T08:30:46.995Z,16.5
2018-05-15T08:31:46.274Z,16.5
2018-05-15T08:32:46.308Z,16.56
2018-05-15T08:33:46.282Z,16.56
2018-05-15T08:34:46.329Z,16.62
2018-05-15T08:35:46.260Z,16.69
2018-05-15T08:36:46.272Z,16.75
2018-05-15T08:37:46.312Z,16.75
2018-05-15T08:38:46.256Z,16.81
2018-05-15T08:39:46.261Z,16.87
2018-05-15T08:40:46.312Z,16.94
2018-05-15T08:41:46.290Z,16.87
2018-05-15T08:42:46.409Z,16.94
2018-05-15T08:43:46.377Z,16.94
2018-05-15T08:44:46.318Z,16.94
2018-05-15T08:45:46.380Z,17
2018-05-15T08:46:46.311Z,17.06
2018-05-15T08:47:47.207Z,17
2018-05-15T08:48:46.428Z,17.12
2018-05-15T08:49:46.356Z,17.12
2018-05-15T08:50:46.383Z,17.19
2018-05-15T08:51:46.398Z,17.19
2018-05-15T08:52:46.364Z,17.19
2018-05-15T08:53:46.349Z,17.25
2018-05-15T08:54:46.303Z,17.31
2018-05-15T08:55:46.330Z,17.31
2018-05-15T08:56:46.324Z,17.44
2018-05-15T08:57:46.356Z,17.37
2018-05-15T08:58:46.432Z,17.37
2018-05-15T08:59:46.358Z,17.37
2018-05-15T09:00:46.546Z,17.44
2018-05-15T09:01:46.335Z,17.5
2018-05-15T09:02:46.353Z,17.5
2018-05-15T09:03:46.369Z,17.5
2018-05-15T09:04:46.364Z,17.56
2018-05-15T09:05:46.328Z,17.5
2018-05-15T09:06:46.351Z,17.62
2018-05-15T09:07:46.337Z,17.56
2018-05-15T09:08:46.365Z,17.62
2018-05-15T09:09:46.376Z,17.62
2018-05-15T09:10:46.393Z,17.62
2018-05-15T09:11:46.322Z,17.69
2018-05-15T09:12:46.371Z,17.75
2018-05-15T09:13:46.295Z,17.81
2018-05-15T09:14:46.376Z,17.81
2018-05-15T09:15:46.397Z,17.81
2018-05-15T09:16:46.427Z,17.81
2018-05-15T09:17:46.387Z,17.81
2018-05-15T09:18:46.466Z,17.87
2018-05-15T09:19:46.765Z,17.94
2018-05-15T09:20:46.317Z,17.94
2018-05-15T09:21:46.324Z,18
2018-05-15T09:22:46.362Z,18
2018-05-15T09:23:46.358Z,18.06
2018-05-15T09:24:46.819Z,18
2018-05-15T09:25:46.444Z,18
2018-05-15T09:26:46.365Z,18
2018-05-15T09:27:46.367Z,18.06
2018-05-15T09:28:46.376Z,18.06
2018-05-15T09:29:46.380Z,18.06
2018-05-15T09:30:46.453Z,18
2018-05-15T09:31:46.317Z,18.06
2018-05-15T09:32:46.435Z,18.12
2018-05-15T09:33:46.409Z,18.12
2018-05-15T09:34:46.313Z,18.19
2018-05-15T09:35:46.357Z,18.19
2018-05-15T09:36:46.357Z,18.25
2018-05-15T09:37:46.378Z,18.31
2018-05-15T09:38:46.573Z,18.31
2018-05-15T09:39:46.361Z,18.37
2018-05-15T09:40:46.356Z,18.37
2018-05-15T09:41:46.363Z,18.37
2018-05-15T09:42:46.404Z,18.44
2018-05-15T09:43:46.331Z,18.44
2018-05-15T09:44:46.587Z,18.37
2018-05-15T09:45:46.391Z,18.44
2018-05-15T09:46:46.329Z,18.5
2018-05-15T09:47:46.507Z,18.56
2018-05-15T09:48:46.352Z,18.75
2018-05-15T09:49:46.443Z,18.75
2018-05-15T09:50:46.381Z,18.75
2018-05-15T09:51:46.379Z,18.75
2018-05-15T09:52:46.395Z,18.81
2018-05-15T09:53:46.345Z,18.87
2018-05-15T09:54:46.426Z,18.87
2018-05-15T09:55:46.398Z,18.87
2018-05-15T09:56:46.323Z,18.87
2018-05-15T09:57:46.413Z,18.87
2018-05-15T09:58:46.422Z,18.87
2018-05-15T09:59:46.395Z,18.81
2018-05-15T10:00:46.412Z,18.81
2018-05-15T10:01:46.349Z,18.87
2018-05-15T10:02:46.422Z,18.81
2018-05-15T10:03:46.343Z,18.81
2018-05-15T10:04:46.346Z,18.81
2018-05-15T10:05:46.399Z,18.81
2018-05-15T10:06:46.340Z,18.81
2018-05-15T10:07:46.813Z,18.75
2018-05-15T10:08:46.734Z,18.75
2018-05-15T10:09:46.321Z,18.81
2018-05-15T10:10:46.400Z,18.81
2018-05-15T10:11:46.383Z,18.81
2018-05-15T10:12:46.321Z,18.81
2018-05-15T10:13:46.372Z,18.87
2018-05-15T10:14:46.336Z,18.94
2018-05-15T10:15:46.398Z,19
2018-05-15T10:16:46.403Z,19
2018-05-15T10:17:46.307Z,19.06
2018-05-15T10:18:46.353Z,19.12
2018-05-15T10:19:46.332Z,19.19
2018-05-15T10:20:46.353Z,19.25
2018-05-15T10:21:46.364Z,19.31
2018-05-15T10:22:46.379Z,19.5
2018-05-15T10:23:46.374Z,19.56
2018-05-15T10:24:46.391Z,19.56
2018-05-15T10:25:46.438Z,19.56
2018-05-15T10:26:46.411Z,19.56
2018-05-15T10:27:46.382Z,19.69
2018-05-15T10:28:46.408Z,19.56
2018-05-15T10:29:46.528Z,19.56
2018-05-15T10:30:46.336Z,19.56
2018-05-15T10:31:46.401Z,19.56
2018-05-15T10:32:46.412Z,19.62
2018-05-15T10:33:46.393Z,19.69
2018-05-15T10:34:46.372Z,19.69
2018-05-15T10:35:46.353Z,19.81
2018-05-15T10:36:46.471Z,19.81
2018-05-15T10:37:46.380Z,19.75
2018-05-15T10:38:46.339Z,19.81
2018-05-15T10:39:46.411Z,19.81
2018-05-15T10:40:46.575Z,19.87
2018-05-15T10:41:46.561Z,19.87
2018-05-15T10:42:46.412Z,19.94
2018-05-15T10:43:46.346Z,20
2018-05-15T10:44:46.414Z,20
2018-05-15T10:45:46.384Z,20
2018-05-15T10:46:46.396Z,19.94
2018-05-15T10:47:46.392Z,19.87
2018-05-15T10:48:46.369Z,19.87
2018-05-15T10:49:46.400Z,19.94
2018-05-15T10:50:46.826Z,19.94
2018-05-15T10:51:46.369Z,19.94
2018-05-15T10:52:46.355Z,19.94
2018-05-15T10:53:46.427Z,19.87
2018-05-15T10:54:46.338Z,19.81
2018-05-15T10:55:46.373Z,19.81
2018-05-15T10:56:46.378Z,19.87
2018-05-15T10:57:46.356Z,19.81
2018-05-15T10:58:46.334Z,19.75
2018-05-15T10:59:46.377Z,19.81
2018-05-15T11:00:46.376Z,19.87
2018-05-15T11:01:46.355Z,19.94
2018-05-15T11:02:46.529Z,20.06
2018-05-15T11:03:46.406Z,20
2018-05-15T11:04:46.551Z,20.12
2018-05-15T11:05:46.420Z,20.12
2018-05-15T11:06:46.423Z,20.19
2018-05-15T11:07:46.405Z,20.25
2018-05-15T11:08:46.477Z,20.25
2018-05-15T11:09:46.428Z,20.31
2018-05-15T11:10:46.409Z,20.37
2018-05-15T11:11:46.405Z,20.31
2018-05-15T11:12:46.805Z,20.37
2018-05-15T11:13:46.343Z,20.37
2018-05-15T11:14:46.395Z,20.37
2018-05-15T11:15:46.392Z,20.44
2018-05-15T11:16:46.484Z,20.37
2018-05-15T11:17:46.441Z,20.31
2018-05-15T11:18:47.058Z,20.37
2018-05-15T11:19:46.397Z,20.37
2018-05-15T11:20:46.366Z,20.37
2018-05-15T11:21:46.366Z,20.44
2018-05-15T11:22:46.490Z,20.56
2018-05-15T11:23:46.413Z,20.62
2018-05-15T11:24:46.575Z,20.75
2018-05-15T11:25:46.390Z,20.94
2018-05-15T11:26:46.365Z,21
2018-05-15T11:27:46.415Z,21.06
2018-05-15T11:28:46.440Z,21.12
2018-05-15T11:29:46.430Z,21.19
2018-05-15T11:30:46.418Z,21.19
2018-05-15T11:31:46.539Z,21.19
2018-05-15T11:32:46.490Z,21.19
2018-05-15T11:33:46.440Z,21.19
2018-05-15T11:34:46.534Z,21.19
2018-05-15T11:35:48.110Z,21.19
2018-05-15T11:36:46.405Z,21.25
2018-05-15T11:37:46.596Z,21.25
2018-05-15T11:38:46.407Z,21.19
2018-05-15T11:39:46.383Z,21.31
2018-05-15T11:40:47.118Z,21.31
2018-05-15T11:41:46.934Z,21.37
2018-05-15T11:42:46.519Z,21.44
2018-05-15T11:43:46.366Z,21.5
2018-05-15T11:44:46.463Z,21.56
2018-05-15T11:45:46.435Z,21.62
2018-05-15T11:46:46.360Z,21.69
2018-05-15T11:47:50.407Z,21.75
2018-05-15T11:48:53.656Z,21.81
2018-05-15T11:49:54.980Z,21.75
2018-05-15T11:50:54.164Z,21.75
2018-05-15T11:51:55.787Z,21.75
2018-05-15T11:52:53.312Z,21.69
2018-05-15T11:53:46.764Z,21.75
2018-05-15T11:54:46.489Z,21.69
2018-05-15T11:55:46.569Z,21.69
2018-05-15T11:56:46.541Z,21.75
2018-05-15T11:57:46.700Z,21.62
2018-05-15T11:58:46.411Z,21.62
2018-05-15T11:59:47.283Z,21.62
2018-05-15T12:00:46.499Z,21.56
2018-05-15T12:01:46.409Z,21.56
2018-05-15T12:02:47.349Z,21.5
2018-05-15T12:03:46.953Z,21.56
2018-05-15T12:04:46.363Z,21.75
2018-05-15T12:05:46.415Z,21.81
2018-05-15T12:06:46.432Z,21.87
2018-05-15T12:07:46.412Z,21.81
2018-05-15T12:08:46.421Z,21.81
2018-05-15T12:09:46.405Z,21.94
2018-05-15T12:10:46.404Z,22
2018-05-15T12:11:46.446Z,22.06
2018-05-15T12:12:46.758Z,22.13
2018-05-15T12:13:46.413Z,22.19
2018-05-15T12:14:46.382Z,22.25
2018-05-15T12:15:46.544Z,22.25
2018-05-15T12:16:46.410Z,22.37
2018-05-15T12:17:46.379Z,22.44
2018-05-15T12:18:46.392Z,22.44
2018-05-15T12:19:52.275Z,22.5
2018-05-15T12:20:46.435Z,22.5
2018-05-15T12:21:46.387Z,22.5
2018-05-15T12:22:46.434Z,22.5
2018-05-15T12:23:46.425Z,22.5
2018-05-15T12:24:46.506Z,22.56
2018-05-15T12:25:46.454Z,22.62
2018-05-15T12:26:46.516Z,22.56
2018-05-15T12:27:46.427Z,22.5
2018-05-15T12:28:46.480Z,22.56
2018-05-15T12:29:46.817Z,22.56
2018-05-15T12:30:46.499Z,22.5
2018-05-15T12:31:46.466Z,22.44
2018-05-15T12:32:46.495Z,22.37
2018-05-15T12:33:46.433Z,22.31
2018-05-15T12:34:46.432Z,22.31
2018-05-15T12:35:46.923Z,22.25
2018-05-15T12:36:46.444Z,22.25
2018-05-15T12:37:46.433Z,22.31
2018-05-15T12:38:46.442Z,22.31
2018-05-15T12:39:46.437Z,22.37
2018-05-15T12:40:46.476Z,22.5
2018-05-15T12:41:48.016Z,22.5
2018-05-15T12:42:46.428Z,22.5
2018-05-15T12:43:46.416Z,22.44
2018-05-15T12:44:46.476Z,22.37
2018-05-15T12:45:46.559Z,22.37
2018-05-15T12:46:47.080Z,22.31
2018-05-15T12:47:46.917Z,22.25
2018-05-15T12:48:47.343Z,22.31
2018-05-15T12:49:46.444Z,22.31
2018-05-15T12:50:46.423Z,22.25
2018-05-15T12:51:46.954Z,22.19
2018-05-15T12:52:46.426Z,22.13
2018-05-15T12:53:46.465Z,22.06
2018-05-15T12:54:46.486Z,22
2018-05-15T12:55:46.409Z,22
2018-05-15T12:56:46.491Z,22
2018-05-15T12:57:46.492Z,21.94
2018-05-15T12:58:46.538Z,21.87